Mount Airy, NC (27030)

8:19 PM EST on February 09, 2016 (GMT -0500)
Mt. Airy, NC | | Change Station
CLOSE
Current Station
Personal Weather Station
Location: Mt Airy, NC
Elevation: 1197 ft
Nearby Weather Stations

Elev 1197 ft 36.52 °N, 80.64 °W | Updated 6 seconds ago

Overcast
Overcast
25.9 °F
Feels Like 26 °F
N
3.0
Wind Variable Wind from WNW
Gusts 7.0 mph

Today
High -- | Low -- °F
--% Chance of Precip.
Yesterday
High -- | Low -- °F
Precip. -- in
Pressure 29.81 in
Visibility 10.0 miles
Clouds Overcast 4300 ft
Windchill 26 °F
Dew Point 14 °F
Humidity 59%
Rainfall 0.00 in
Snow Depth Not available.
7:17 AM 5:56 PM
Waxing Crescent, 3% visible
METAR KMWK 100055Z AUTO 30005KT 10SM OVC043 M02/M10 A2981 RMK AO2 T10201105
Pressure 29.81 in
Visibility 10.0 miles
Clouds Overcast 4300 ft
Windchill 26 °F
Dew Point 14 °F
Humidity 59%
Rainfall 0.00 in
Snow Depth Not available.
7:17 AM 5:56 PM
Waxing Crescent, 3% visible
METAR KMWK 100055Z AUTO 30005KT 10SM OVC043 M02/M10 A2981 RMK AO2 T10201105
Winter Storm Nacio, the third winter storm in five days to affect the Northeast, is bringing pockets of locally heavy snow to parts of the Ohio Valley, Appalachians and mid-Atlantic states Tuesday. Winter storm warnings are posted for parts of southern Pennsylvania, southern Ohio and the higher peaks of the Appalachians. Winter weather advisories, generally for lighter snow accumulations, stretch from northeast Alabama and far north Georgia to southern Connecticut and Long Island.

10-Day Weather Forecast

Almanac

Astronomy

Feb. 09, 2016 Rise Set
Actual Time
Civil Twilight
Nautical Twilight
Astronomical Twilight
Moon
Length of Visible Light
Length of Day
Tomorrow will be .
, % of the Moon is Illuminated

Today's Extremes

State Highs State Lows

Community

WunderPhotos

Upload Photos

1,891,752 photos uploaded!

WunderBlog® & News

Nearby

Air Quality

  Air Quality AQ Index Pollutant
Not available.

Snow Depth

Station Depth Elevation

Earthquake Activity

City Distance Mag. Time & Date
Minimum magnitude displayed is 2.5.

Coastal Water Temperatures

Place Temperature

Stations

Nearby Weather Stations

Station Location Temp. Windchill Dew Point Humidity Wind Precip. Elev Updated Type
                   

Watches & Warnings

There are currently no watches in effect.